createdAt,value
2023-11-15T00:00:22.458Z,8.00
2023-11-15T00:03:10.811Z,7.93
2023-11-15T00:05:39.348Z,7.82
2023-11-15T00:08:07.644Z,7.74
2023-11-15T00:10:36.500Z,7.74
2023-11-15T00:13:04.762Z,7.75
2023-11-15T00:15:32.939Z,7.76
2023-11-15T00:18:05.921Z,7.75
2023-11-15T00:20:35.160Z,7.78
2023-11-15T00:23:03.746Z,7.83
2023-11-15T00:25:32.357Z,7.89
2023-11-15T00:28:00.519Z,7.95
2023-11-15T00:30:28.942Z,7.99
2023-11-15T00:32:57.286Z,8.00
2023-11-15T00:35:26.910Z,8.02
2023-11-15T00:37:56.141Z,8.03
2023-11-15T00:40:24.420Z,8.01
2023-11-15T00:42:52.812Z,8.02
2023-11-15T00:45:25.364Z,8.04
2023-11-15T00:47:53.605Z,8.06
2023-11-15T00:50:22.248Z,8.03
2023-11-15T00:52:50.475Z,8.00
2023-11-15T00:55:19.281Z,8.01
2023-11-15T00:57:47.758Z,8.04
2023-11-15T01:00:25.690Z,8.07
2023-11-15T01:03:02.882Z,8.09
2023-11-15T01:05:32.048Z,8.08
2023-11-15T01:08:00.889Z,8.06
2023-11-15T01:10:29.128Z,8.03
2023-11-15T01:12:57.472Z,8.02
2023-11-15T01:15:26.899Z,8.04
2023-11-15T01:17:58.623Z,8.06
2023-11-15T01:20:27.200Z,8.09
2023-11-15T01:22:55.643Z,8.09
2023-11-15T01:25:23.923Z,8.09
2023-11-15T01:27:52.301Z,8.10
2023-11-15T01:30:21.147Z,8.11
2023-11-15T01:32:49.712Z,8.13
2023-11-15T01:35:19.731Z,8.11
2023-11-15T01:37:53.057Z,8.09
2023-11-15T01:40:22.412Z,8.07
2023-11-15T01:42:51.792Z,8.05
2023-11-15T01:45:20.008Z,8.02
2023-11-15T01:47:48.339Z,7.99
2023-11-15T01:50:16.989Z,7.96
2023-11-15T01:52:47.931Z,7.94
2023-11-15T01:55:25.614Z,7.93
2023-11-15T01:57:54.685Z,7.88
2023-11-15T02:00:24.249Z,7.86
2023-11-15T02:02:52.806Z,7.85
2023-11-15T02:05:22.231Z,7.76
2023-11-15T02:07:50.960Z,7.59
2023-11-15T02:10:19.158Z,7.46
2023-11-15T02:12:48.256Z,7.41
2023-11-15T02:15:17.449Z,7.40
2023-11-15T02:17:50.273Z,7.40
2023-11-15T02:20:19.352Z,7.38
2023-11-15T02:22:50.374Z,7.36
2023-11-15T02:25:19.482Z,7.34
2023-11-15T02:27:48.126Z,7.33
2023-11-15T02:30:16.425Z,7.31
2023-11-15T02:32:45.313Z,7.30
2023-11-15T02:35:17.391Z,7.29
2023-11-15T02:37:45.899Z,7.28
2023-11-15T02:40:14.486Z,7.25
2023-11-15T02:42:43.707Z,7.20
2023-11-15T02:45:12.262Z,7.21
2023-11-15T02:47:40.739Z,7.22
2023-11-15T02:50:09.900Z,7.26
2023-11-15T02:52:38.225Z,7.32
2023-11-15T02:55:06.549Z,7.36
2023-11-15T02:57:35.277Z,7.40
2023-11-15T03:00:05.406Z,7.44
2023-11-15T03:02:33.976Z,7.42
2023-11-15T03:05:02.359Z,7.34
2023-11-15T03:07:30.548Z,7.29
2023-11-15T03:09:58.744Z,7.24
2023-11-15T03:12:27.493Z,7.18
2023-11-15T03:14:55.996Z,7.14
2023-11-15T03:17:24.561Z,7.11
2023-11-15T03:19:52.744Z,7.08
2023-11-15T03:22:22.303Z,7.06
2023-11-15T03:24:51.581Z,7.04
2023-11-15T03:27:21.044Z,6.96
2023-11-15T03:29:50.197Z,6.97
2023-11-15T03:32:18.681Z,6.98
2023-11-15T03:34:47.637Z,7.00
2023-11-15T03:37:16.309Z,7.02
2023-11-15T03:39:45.174Z,7.00
2023-11-15T03:42:13.962Z,6.85
2023-11-15T03:44:42.214Z,6.76
2023-11-15T03:47:10.725Z,6.69
2023-11-15T03:49:39.094Z,6.66
2023-11-15T03:52:08.532Z,6.62
2023-11-15T03:54:37.818Z,6.60
2023-11-15T03:57:09.326Z,6.64
2023-11-15T03:59:37.752Z,6.66
2023-11-15T04:02:08.074Z,6.69
2023-11-15T04:04:39.377Z,6.73
2023-11-15T04:07:09.412Z,6.77
2023-11-15T04:09:38.609Z,6.79
2023-11-15T04:12:07.258Z,6.80
2023-11-15T04:14:35.919Z,6.80
2023-11-15T04:17:04.897Z,6.78
2023-11-15T04:19:33.242Z,6.74
2023-11-15T04:22:11.676Z,6.74
2023-11-15T04:24:42.513Z,6.75
2023-11-15T04:27:10.825Z,6.77
2023-11-15T04:29:39.574Z,6.83
2023-11-15T04:32:08.514Z,6.84
2023-11-15T04:34:36.792Z,6.86
2023-11-15T04:37:05.266Z,6.86
2023-11-15T04:39:35.017Z,6.81
2023-11-15T04:42:05.719Z,6.73
2023-11-15T04:44:34.183Z,6.69
2023-11-15T04:47:02.399Z,6.70
2023-11-15T04:49:31.598Z,6.76
2023-11-15T04:51:59.971Z,6.79
2023-11-15T04:54:28.269Z,6.74
2023-11-15T04:56:56.822Z,6.67
2023-11-15T04:59:25.241Z,6.64
2023-11-15T05:01:53.550Z,6.59
2023-11-15T05:04:23.522Z,6.51
2023-11-15T05:06:52.087Z,6.46
2023-11-15T05:09:20.644Z,6.43
2023-11-15T05:11:48.961Z,6.41
2023-11-15T05:14:17.222Z,6.46
2023-11-15T05:16:45.774Z,6.54
2023-11-15T05:19:14.956Z,6.60
2023-11-15T05:21:43.233Z,6.61
2023-11-15T05:24:12.356Z,6.66
2023-11-15T05:26:40.735Z,6.72
2023-11-15T05:29:09.140Z,6.79
2023-11-15T05:31:37.371Z,6.81
2023-11-15T05:34:05.820Z,6.82
2023-11-15T05:36:34.166Z,6.83
2023-11-15T05:39:02.732Z,6.88
2023-11-15T05:41:31.120Z,6.87
2023-11-15T05:44:01.111Z,6.87
2023-11-15T05:46:29.520Z,6.87
2023-11-15T05:48:57.927Z,6.88
2023-11-15T05:51:27.146Z,6.89
2023-11-15T05:53:55.822Z,6.88
2023-11-15T05:56:24.445Z,6.88
2023-11-15T05:58:52.893Z,6.88
2023-11-15T06:01:22.089Z,6.89
2023-11-15T06:03:51.605Z,6.89
2023-11-15T06:06:22.268Z,6.91
2023-11-15T06:08:51.144Z,6.91
2023-11-15T06:11:20.929Z,6.91
2023-11-15T06:13:50.468Z,6.92
2023-11-15T06:16:21.146Z,6.96
2023-11-15T06:18:53.427Z,6.98
2023-11-15T06:21:22.288Z,6.97
2023-11-15T06:23:52.310Z,6.98
2023-11-15T06:26:21.156Z,7.00
2023-11-15T06:28:52.269Z,7.04
2023-11-15T06:31:22.596Z,7.05
2023-11-15T06:33:51.308Z,7.05
2023-11-15T06:36:20.763Z,7.05
2023-11-15T06:38:49.535Z,7.09
2023-11-15T06:41:18.704Z,7.16
2023-11-15T06:43:47.971Z,7.21
2023-11-15T06:46:19.918Z,7.17
2023-11-15T06:48:49.323Z,6.93
2023-11-15T06:51:19.071Z,6.87
2023-11-15T06:53:48.496Z,6.93
2023-11-15T06:56:18.980Z,7.00
2023-11-15T06:58:47.894Z,7.04
2023-11-15T07:01:17.059Z,7.09
2023-11-15T07:03:46.118Z,7.15
2023-11-15T07:06:16.540Z,7.26
2023-11-15T07:08:45.203Z,7.26
2023-11-15T07:11:13.956Z,7.13
2023-11-15T07:13:42.601Z,7.09
2023-11-15T07:16:12.867Z,7.05
2023-11-15T07:18:41.783Z,7.10
2023-11-15T07:21:10.385Z,7.25
2023-11-15T07:23:42.437Z,7.31
2023-11-15T07:26:12.432Z,7.09
2023-11-15T07:28:43.648Z,6.98
2023-11-15T07:31:14.881Z,6.95
2023-11-15T07:33:44.610Z,7.01
2023-11-15T07:36:13.784Z,7.09
2023-11-15T07:38:42.994Z,7.08
2023-11-15T07:41:11.907Z,7.05
2023-11-15T07:43:40.573Z,6.94
2023-11-15T07:46:11.626Z,6.93
2023-11-15T07:48:40.961Z,7.02
2023-11-15T07:51:10.038Z,7.06
2023-11-15T07:53:38.780Z,7.16
2023-11-15T07:56:10.176Z,7.29
2023-11-15T07:58:39.674Z,7.42
2023-11-15T08:01:11.434Z,7.56
2023-11-15T08:03:43.077Z,7.65
2023-11-15T08:06:12.278Z,7.74
2023-11-15T08:08:41.127Z,7.83
2023-11-15T08:11:11.570Z,7.92
2023-11-15T08:13:40.952Z,7.94
2023-11-15T08:16:14.296Z,8.01
2023-11-15T08:18:46.456Z,8.13
2023-11-15T08:21:16.623Z,8.22
2023-11-15T08:23:45.937Z,8.24
2023-11-15T08:26:21.035Z,8.37
2023-11-15T08:28:55.740Z,8.48
2023-11-15T08:31:25.390Z,8.41
2023-11-15T08:33:55.108Z,8.46
2023-11-15T08:36:24.349Z,8.56
2023-11-15T08:38:54.351Z,8.56
2023-11-15T08:41:23.621Z,8.66
2023-11-15T08:43:53.445Z,8.83
2023-11-15T08:46:27.775Z,8.95
2023-11-15T08:48:56.767Z,9.04
2023-11-15T08:51:27.684Z,9.11
2023-11-15T08:53:56.273Z,9.22
2023-11-15T08:56:24.992Z,9.32
2023-11-15T08:58:55.604Z,9.41
2023-11-15T09:01:26.180Z,9.49
2023-11-15T09:03:55.009Z,9.57
2023-11-15T09:06:26.379Z,9.54
2023-11-15T09:08:55.957Z,9.56
2023-11-15T09:11:24.629Z,9.60
2023-11-15T09:13:53.918Z,9.63
2023-11-15T09:16:23.554Z,9.68
2023-11-15T09:18:54.106Z,9.81
2023-11-15T09:21:24.168Z,9.93
2023-11-15T09:23:53.238Z,10.00
2023-11-15T09:26:24.821Z,10.01
2023-11-15T09:28:53.396Z,10.00
2023-11-15T09:31:22.509Z,10.04
2023-11-15T09:33:53.610Z,10.13
2023-11-15T09:36:22.302Z,10.26
2023-11-15T09:38:51.161Z,10.39
2023-11-15T09:41:21.034Z,10.49
2023-11-15T09:43:56.829Z,10.61
2023-11-15T09:46:28.314Z,10.72
2023-11-15T09:49:02.952Z,10.83
2023-11-15T09:51:39.135Z,10.90
2023-11-15T09:54:16.086Z,10.95
2023-11-15T09:56:48.386Z,11.05
2023-11-15T09:59:20.385Z,11.13
2023-11-15T10:01:50.455Z,11.20
2023-11-15T10:04:26.343Z,11.26
2023-11-15T10:07:05.209Z,11.26
2023-11-15T10:09:41.276Z,11.27
2023-11-15T10:12:12.097Z,11.40
2023-11-15T10:15:02.478Z,11.59
2023-11-15T10:17:44.501Z,11.78
2023-11-15T10:20:23.750Z,11.95
2023-11-15T10:22:54.449Z,12.14
2023-11-15T10:25:27.354Z,12.26
2023-11-15T10:28:11.680Z,12.35
2023-11-15T10:30:42.074Z,12.47
2023-11-15T10:33:12.582Z,12.53
2023-11-15T10:35:44.858Z,12.61
2023-11-15T10:38:20.715Z,12.65
2023-11-15T10:40:51.212Z,12.61
2023-11-15T10:43:21.280Z,12.64
2023-11-15T10:45:52.832Z,12.69
2023-11-15T10:48:24.178Z,12.79
2023-11-15T10:50:59.559Z,12.93
2023-11-15T10:53:31.684Z,13.06
2023-11-15T10:56:00.805Z,13.15
2023-11-15T10:58:32.471Z,13.23
2023-11-15T11:01:03.136Z,13.26
2023-11-15T11:03:32.673Z,13.32
2023-11-15T11:06:08.500Z,13.36
2023-11-15T11:09:04.721Z,13.39
2023-11-15T11:11:55.368Z,13.41
2023-11-15T11:14:29.868Z,13.41
2023-11-15T11:17:00.070Z,13.36
2023-11-15T11:19:28.806Z,13.25
2023-11-15T11:22:05.045Z,13.18
2023-11-15T11:24:47.598Z,13.15
2023-11-15T11:27:16.350Z,12.97
2023-11-15T11:29:51.087Z,12.87
2023-11-15T11:32:21.958Z,12.88
2023-11-15T11:35:02.790Z,12.88
2023-11-15T11:37:48.859Z,12.80
2023-11-15T11:40:19.633Z,12.79
2023-11-15T11:42:50.311Z,12.82
2023-11-15T11:45:19.090Z,12.72
2023-11-15T11:47:49.025Z,12.71
2023-11-15T11:50:25.319Z,12.75
2023-11-15T11:53:04.075Z,12.77
2023-11-15T11:55:33.488Z,12.74
2023-11-15T11:58:04.154Z,12.67
2023-11-15T12:00:32.741Z,12.64
2023-11-15T12:03:05.984Z,12.57
2023-11-15T12:05:35.194Z,12.48
2023-11-15T12:08:04.773Z,12.37
2023-11-15T12:10:35.448Z,12.31
2023-11-15T12:13:09.519Z,12.25
2023-11-15T12:15:39.040Z,12.16
2023-11-15T12:18:09.788Z,12.18
2023-11-15T12:20:41.373Z,12.20
2023-11-15T12:23:13.897Z,12.17
2023-11-15T12:25:56.236Z,12.12
2023-11-15T12:28:32.691Z,12.11
2023-11-15T12:31:05.232Z,12.10
2023-11-15T12:33:37.339Z,12.10
2023-11-15T12:36:08.035Z,12.07
2023-11-15T12:38:36.729Z,12.06
2023-11-15T12:41:07.627Z,12.01
2023-11-15T12:43:38.470Z,11.95
2023-11-15T12:46:21.723Z,11.90
2023-11-15T12:48:52.544Z,11.88
2023-11-15T12:51:22.128Z,11.89
2023-11-15T12:53:50.709Z,11.92
2023-11-15T12:56:20.867Z,11.90
2023-11-15T12:58:49.899Z,11.86
2023-11-15T13:01:20.815Z,11.86
2023-11-15T13:03:56.900Z,11.87
2023-11-15T13:06:30.708Z,11.88
2023-11-15T13:09:03.674Z,11.91
2023-11-15T13:11:32.572Z,11.95
2023-11-15T13:16:28.119Z,11.92
2023-11-15T13:18:58.084Z,11.86
2023-11-15T13:21:27.921Z,11.80
2023-11-15T13:23:57.141Z,11.73
2023-11-15T13:26:26.367Z,11.67
2023-11-15T13:28:55.432Z,11.61
2023-11-15T13:31:26.366Z,11.55
2023-11-15T13:33:57.884Z,11.49
2023-11-15T13:36:29.114Z,11.47
2023-11-15T13:38:58.882Z,11.50
2023-11-15T13:41:30.437Z,11.55
2023-11-15T13:44:00.343Z,11.62
2023-11-15T13:46:30.395Z,11.64
2023-11-15T13:49:05.366Z,11.63
2023-11-15T13:51:34.429Z,11.59
2023-11-15T13:54:04.161Z,11.56
2023-11-15T13:56:33.093Z,11.51
2023-11-15T13:59:01.793Z,11.47
2023-11-15T14:01:46.777Z,11.42
2023-11-15T14:04:15.139Z,11.32
2023-11-15T14:06:43.903Z,11.28
2023-11-15T14:09:14.152Z,11.25
2023-11-15T14:11:44.184Z,11.24
2023-11-15T14:14:13.256Z,11.21
2023-11-15T14:16:42.242Z,11.14
2023-11-15T14:19:11.346Z,11.04
2023-11-15T14:21:46.044Z,10.99
2023-11-15T14:24:15.598Z,10.97
2023-11-15T14:26:44.613Z,10.99
2023-11-15T14:29:14.540Z,10.99
2023-11-15T14:31:43.502Z,10.98
2023-11-15T14:34:12.238Z,10.98
2023-11-15T14:36:45.090Z,10.95
2023-11-15T14:39:14.219Z,10.92
2023-11-15T14:41:43.159Z,10.89
2023-11-15T14:44:11.836Z,10.84
2023-11-15T14:46:40.545Z,10.77
2023-11-15T14:49:09.307Z,10.68
2023-11-15T14:51:38.290Z,10.59
2023-11-15T14:54:07.554Z,10.48
2023-11-15T14:56:38.920Z,10.40
2023-11-15T14:59:08.005Z,10.33
2023-11-15T15:01:36.804Z,10.29
2023-11-15T15:04:06.579Z,10.27
2023-11-15T15:06:54.794Z,10.28
2023-11-15T15:09:23.306Z,10.23
2023-11-15T15:11:52.951Z,10.19
2023-11-15T15:14:22.549Z,10.12
2023-11-15T15:16:51.421Z,10.07
2023-11-15T15:19:22.783Z,10.03
2023-11-15T15:21:51.821Z,9.99
2023-11-15T15:24:21.346Z,9.98
2023-11-15T15:26:54.044Z,9.97
2023-11-15T15:29:27.639Z,9.98
2023-11-15T15:31:57.128Z,9.96
2023-11-15T15:34:25.582Z,9.99
2023-11-15T15:36:54.459Z,10.00
2023-11-15T15:39:23.778Z,9.99
2023-11-15T15:41:52.513Z,9.96
2023-11-15T15:44:24.295Z,9.93
2023-11-15T15:46:53.199Z,9.92
2023-11-15T15:49:22.141Z,9.89
2023-11-15T15:51:51.419Z,9.83
2023-11-15T15:54:20.064Z,9.74
2023-11-15T15:56:48.698Z,9.63
2023-11-15T15:59:17.493Z,9.52
2023-11-15T16:01:46.846Z,9.40
2023-11-15T16:04:17.362Z,9.28
2023-11-15T16:06:46.132Z,9.18
2023-11-15T16:09:15.336Z,9.07
2023-11-15T16:11:45.583Z,8.96
2023-11-15T16:14:14.260Z,8.87
2023-11-15T16:16:48.342Z,8.79
2023-11-15T16:19:17.756Z,8.74
2023-11-15T16:21:46.448Z,8.71
2023-11-15T16:24:15.147Z,8.68
2023-11-15T16:26:43.778Z,8.65
2023-11-15T16:29:16.458Z,8.62
2023-11-15T16:31:45.882Z,8.60
2023-11-15T16:34:14.387Z,8.58
2023-11-15T16:36:45.608Z,8.57
2023-11-15T16:39:14.636Z,8.59
2023-11-15T16:41:51.700Z,8.61
2023-11-15T16:44:20.822Z,8.60
2023-11-15T16:46:52.976Z,8.60
2023-11-15T16:49:22.037Z,8.58
2023-11-15T16:51:51.359Z,8.55
2023-11-15T16:54:20.595Z,8.48
2023-11-15T16:56:49.539Z,8.43
2023-11-15T16:59:18.105Z,8.37
2023-11-15T17:01:47.730Z,8.32
2023-11-15T17:04:16.391Z,8.27
2023-11-15T17:06:46.286Z,8.24
2023-11-15T17:09:16.000Z,8.22
2023-11-15T17:11:45.041Z,8.23
2023-11-15T17:14:15.768Z,8.27
2023-11-15T17:16:46.586Z,8.30
2023-11-15T17:19:20.933Z,8.33
2023-11-15T17:21:49.973Z,8.37
2023-11-15T17:24:20.320Z,8.43
2023-11-15T17:26:49.580Z,8.47
2023-11-15T17:29:18.320Z,8.55
2023-11-15T17:31:47.045Z,8.60
2023-11-15T17:34:16.045Z,8.64
2023-11-15T17:36:45.854Z,8.69
2023-11-15T17:39:16.205Z,8.74
2023-11-15T17:41:44.886Z,8.80
2023-11-15T17:44:16.385Z,8.84
2023-11-15T17:46:45.725Z,8.93
2023-11-15T17:49:15.671Z,9.00
2023-11-15T17:51:48.216Z,9.10
2023-11-15T17:54:16.868Z,9.20
2023-11-15T17:56:48.973Z,9.28
2023-11-15T17:59:17.509Z,9.35
2023-11-15T18:01:45.894Z,9.39
2023-11-15T18:04:15.896Z,9.41
2023-11-15T18:06:44.959Z,9.42
2023-11-15T18:09:13.987Z,9.41
2023-11-15T18:11:43.382Z,9.39
2023-11-15T18:14:12.225Z,9.38
2023-11-15T18:16:40.614Z,9.38
2023-11-15T18:19:10.233Z,9.38
2023-11-15T18:21:39.070Z,9.39
2023-11-15T18:24:08.053Z,9.37
2023-11-15T18:26:38.539Z,9.35
2023-11-15T18:29:07.679Z,9.33
2023-11-15T18:31:36.351Z,9.32
2023-11-15T18:34:05.165Z,9.33
2023-11-15T18:36:33.692Z,9.32
2023-11-15T18:39:02.350Z,9.34
2023-11-15T18:41:30.986Z,9.34
2023-11-15T18:44:00.641Z,9.33
2023-11-15T18:46:30.610Z,9.34
2023-11-15T18:48:59.956Z,9.36
2023-11-15T18:51:31.791Z,9.40
2023-11-15T18:54:02.823Z,9.44
2023-11-15T18:56:32.423Z,9.47
2023-11-15T18:59:03.353Z,9.34
2023-11-15T19:01:32.678Z,8.93
2023-11-15T19:04:01.432Z,8.47
2023-11-15T19:06:33.578Z,8.05
2023-11-15T19:09:01.894Z,7.91
2023-11-15T19:11:32.559Z,7.82
2023-11-15T19:14:01.712Z,7.75
2023-11-15T19:16:30.156Z,7.54
2023-11-15T19:18:59.407Z,7.47
2023-11-15T19:21:28.806Z,7.41
2023-11-15T19:23:57.370Z,7.30
2023-11-15T19:26:26.289Z,7.24
2023-11-15T19:28:55.129Z,7.10
2023-11-15T19:31:23.972Z,6.99
2023-11-15T19:33:54.273Z,6.95
2023-11-15T19:36:22.881Z,6.92
2023-11-15T19:38:51.095Z,6.87
2023-11-15T19:41:20.397Z,6.82
2023-11-15T19:43:48.706Z,6.77
2023-11-15T19:46:20.462Z,6.77
2023-11-15T19:48:49.040Z,6.75
2023-11-15T19:51:37.070Z,6.76
2023-11-15T19:54:08.791Z,6.76
2023-11-15T19:56:37.295Z,6.79
2023-11-15T19:59:05.614Z,6.81
2023-11-15T20:01:34.356Z,6.82
2023-11-15T20:04:05.322Z,6.82
2023-11-15T20:06:34.391Z,6.84
2023-11-15T20:09:03.158Z,6.88
2023-11-15T20:11:32.208Z,6.89
2023-11-15T20:14:01.635Z,6.87
2023-11-15T20:16:30.953Z,6.83
2023-11-15T20:19:00.288Z,6.82
2023-11-15T20:21:34.726Z,6.79
2023-11-15T20:24:03.386Z,6.80
2023-11-15T20:26:31.835Z,6.78
2023-11-15T20:29:00.352Z,6.76
2023-11-15T20:31:29.900Z,6.73
2023-11-15T20:34:01.312Z,6.72
2023-11-15T20:36:29.906Z,6.76
2023-11-15T20:41:27.300Z,6.77
2023-11-15T20:43:57.359Z,6.78
2023-11-15T20:46:27.179Z,6.82
2023-11-15T20:48:56.359Z,6.85
2023-11-15T20:51:27.322Z,6.88
2023-11-15T20:53:57.072Z,6.90
2023-11-15T20:56:25.848Z,6.90
2023-11-15T20:58:54.462Z,6.91
2023-11-15T21:01:23.366Z,6.91
2023-11-15T21:03:54.726Z,6.92
2023-11-15T21:06:23.961Z,6.88
2023-11-15T21:08:52.881Z,6.86
2023-11-15T21:11:23.619Z,6.75
2023-11-15T21:13:52.430Z,6.69
2023-11-15T21:16:20.800Z,6.69
2023-11-15T21:18:49.257Z,6.70
2023-11-15T21:21:17.821Z,6.73
2023-11-15T21:23:47.550Z,6.77
2023-11-15T21:26:18.130Z,6.76
2023-11-15T21:28:51.317Z,6.78
2023-11-15T21:31:21.690Z,6.79
2023-11-15T21:33:50.999Z,6.78
2023-11-15T21:36:19.646Z,6.78
2023-11-15T21:38:48.664Z,6.82
2023-11-15T21:41:17.966Z,6.85
2023-11-15T21:43:48.033Z,6.86
2023-11-15T21:46:16.380Z,6.88
2023-11-15T21:48:46.434Z,6.90
2023-11-15T21:51:15.831Z,6.89
2023-11-15T21:53:44.733Z,6.88
2023-11-15T21:56:13.728Z,6.89
2023-11-15T21:58:42.526Z,6.88
2023-11-15T22:01:14.177Z,6.88
2023-11-15T22:03:43.645Z,6.87
2023-11-15T22:06:12.515Z,6.80
2023-11-15T22:08:41.243Z,6.74
2023-11-15T22:11:09.831Z,6.70
2023-11-15T22:13:38.971Z,6.67
2023-11-15T22:16:14.546Z,6.66
2023-11-15T22:18:42.892Z,6.67
2023-11-15T22:21:11.791Z,6.67
2023-11-15T22:23:40.995Z,6.70
2023-11-15T22:26:09.302Z,6.73
2023-11-15T22:28:37.614Z,6.75
2023-11-15T22:31:07.411Z,6.78
2023-11-15T22:33:35.710Z,6.82
2023-11-15T22:36:05.379Z,6.86
2023-11-15T22:38:33.577Z,6.87
2023-11-15T22:41:01.968Z,6.87
2023-11-15T22:43:31.465Z,6.87
2023-11-15T22:45:59.667Z,6.86
2023-11-15T22:48:28.118Z,6.86
2023-11-15T22:50:56.469Z,6.87
2023-11-15T22:53:24.719Z,6.89
2023-11-15T22:55:53.282Z,6.90
2023-11-15T22:58:21.822Z,6.91
2023-11-15T23:00:54.933Z,6.92
2023-11-15T23:03:23.313Z,6.91
2023-11-15T23:05:52.344Z,6.87
2023-11-15T23:08:20.680Z,6.85
2023-11-15T23:10:48.833Z,6.88
2023-11-15T23:13:19.498Z,6.91
2023-11-15T23:15:52.427Z,6.92
2023-11-15T23:18:22.543Z,6.83
2023-11-15T23:20:51.358Z,6.82
2023-11-15T23:23:20.286Z,6.86
2023-11-15T23:25:51.550Z,6.91
2023-11-15T23:28:23.102Z,6.92
2023-11-15T23:30:56.502Z,6.94
2023-11-15T23:33:25.077Z,6.92
2023-11-15T23:35:54.986Z,6.91
2023-11-15T23:38:23.979Z,6.90
2023-11-15T23:40:55.184Z,6.94
2023-11-15T23:43:26.620Z,6.96
2023-11-15T23:45:56.065Z,6.97
2023-11-15T23:48:24.855Z,6.98
2023-11-15T23:50:54.718Z,6.95
2023-11-15T23:53:23.205Z,6.93
2023-11-15T23:55:51.790Z,6.94
2023-11-15T23:58:20.809Z,6.94
